Time;durP1;ratioP1;P1;durP2;ratioP2;P2;SDS_P1;SDS_P2;PMS_P1;PMS_P2;Temp;Humidity;BMP_temperature;BMP_pressure;BME280_temperature;BME280_humidity;BME280_pressure;Samples;Min_cycle;Max_cycle;Signal;HPM_P1;HPM_P2
2023/10/29 00:16:32;;;;;;;6.30;5.30;;;;;;;21.14;54.44;99780.00;40300031;29;20052;-69
2023/10/29 00:36:35;;;;;;;7.90;5.10;;;;;;;21.31;54.10;99808.31;40288808;29;20076;-70
2023/10/29 00:56:35;;;;;;;6.22;4.95;;;;;;;21.24;54.17;99794.88;40288790;29;20495;-70
2023/10/29 01:16:36;;;;;;;6.15;4.88;;;;;;;21.28;54.31;99795.44;40294361;29;20135;-71
2023/10/29 01:36:37;;;;;;;5.85;5.00;;;;;;;21.24;54.25;99805.41;40295872;29;20052;-69
2023/10/29 01:56:38;;;;;;;6.60;4.72;;;;;;;21.21;54.38;99810.09;40298307;29;20052;-70
2023/10/29 02:16:46;;;;;;;5.68;4.80;;;;;;;21.19;54.34;99833.94;40287560;29;20061;-70
2023/10/29 02:36:47;;;;;;;7.30;4.75;;;;;;;21.17;54.67;99838.50;40283828;29;20045;-70
2023/10/29 02:56:47;;;;;;;5.68;4.90;;;;;;;21.15;54.55;99829.88;40284836;29;20452;-71
2023/10/29 03:16:48;;;;;;;5.68;4.88;;;;;;;21.13;54.73;99839.72;40236567;29;1091716;-70
2023/10/29 03:36:49;;;;;;;5.40;4.68;;;;;;;21.08;54.35;99836.63;40265777;29;20045;-68
2023/10/29 03:56:49;;;;;;;5.45;4.57;;;;;;;21.06;54.77;99825.44;40262709;29;20539;-71
2023/10/29 04:16:50;;;;;;;5.60;4.65;;;;;;;21.04;54.64;99830.81;40263238;29;20140;-70
2023/10/29 04:36:52;;;;;;;5.18;4.60;;;;;;;21.02;54.45;99837.16;40261000;29;20614;-70
2023/10/29 04:56:52;;;;;;;5.78;4.78;;;;;;;20.98;54.77;99833.13;40274406;29;20053;-70
2023/10/29 05:16:53;;;;;;;4.70;4.20;;;;;;;21.00;54.96;99841.75;40284928;29;20511;-70
2023/10/29 05:36:56;;;;;;;4.63;4.18;;;;;;;21.01;54.39;99819.72;40267310;29;20613;-69
2023/10/29 05:56:57;;;;;;;4.72;4.22;;;;;;;21.21;54.57;99871.47;40242473;29;20132;-71
2023/10/29 06:16:58;;;;;;;4.70;4.20;;;;;;;21.28;54.48;99882.34;40263229;29;20574;-71
2023/10/29 06:36:59;;;;;;;6.72;5.18;;;;;;;21.31;50.50;99907.56;40268263;29;20050;-72
2023/10/29 06:57:00;;;;;;;10.30;5.95;;;;;;;21.05;49.32;99893.03;40256152;29;20057;-74
2023/10/29 07:17:01;;;;;;;9.68;6.53;;;;;;;20.95;48.33;99907.94;40271148;29;20057;-74
2023/10/29 07:37:01;;;;;;;12.35;6.57;;;;;;;21.18;49.51;99913.88;40264278;29;20404;-70
2023/10/29 07:57:03;;;;;;;9.70;5.35;;;;;;;21.10;47.82;99919.81;40255551;29;20041;-79
2023/10/29 08:17:04;;;;;;;16.27;7.60;;;;;;;21.39;49.82;99923.56;40271646;29;20053;-70
2023/10/29 08:37:05;;;;;;;20.55;6.55;;;;;;;21.44;49.97;99916.09;40295579;29;20132;-70
2023/10/29 08:57:05;;;;;;;27.73;6.90;;;;;;;21.49;49.82;99907.78;40299659;29;20459;-71
2023/10/29 09:17:06;;;;;;;15.32;6.07;;;;;;;;;;40281516;29;20059;-72
2023/10/29 09:37:06;;;;;;;13.10;5.85;;;;;;;21.86;51.15;99910.72;40291376;29;20496;-70
2023/10/29 09:57:07;;;;;;;9.27;5.07;;;;;;;21.95;51.18;99889.78;40291514;29;20372;-80
2023/10/29 10:17:12;;;;;;;13.35;4.85;;;;;;;22.10;50.65;99869.13;40306695;29;20049;-80
2023/10/29 10:37:13;;;;;;;18.03;4.57;;;;;;;22.22;50.40;99847.75;40285965;29;20049;-79
2023/10/29 10:57:14;;;;;;;12.15;3.15;;;;;;;22.46;50.33;99832.50;40289413;29;20283;-71
2023/10/29 11:17:15;;;;;;;8.88;3.28;;;;;;;22.64;49.74;99829.97;40284453;29;20556;-72
2023/10/29 11:37:35;;;;;;;3.50;1.92;;;;;;;22.60;48.72;99837.34;40273768;29;20097;-73
2023/10/29 11:57:35;;;;;;;5.93;1.80;;;;;;;22.47;48.71;99802.50;40278754;29;20136;-73
2023/10/29 12:17:36;;;;;;;4.45;1.40;;;;;;;22.63;47.97;99791.38;40309759;29;20045;-72
2023/10/29 12:37:36;;;;;;;3.60;1.30;;;;;;;22.57;47.94;99782.22;40299247;29;20041;-72
2023/10/29 12:57:38;;;;;;;3.13;1.40;;;;;;;22.31;48.75;99755.59;40277030;29;20045;-72
2023/10/29 13:17:39;;;;;;;3.90;1.10;;;;;;;22.51;47.82;99756.44;40296130;29;20491;-71
2023/10/29 13:37:39;;;;;;;2.67;1.48;;;;;;;22.48;47.46;99746.97;40290958;29;20132;-70
2023/10/29 13:57:40;;;;;;;4.15;1.50;;;;;;;22.55;48.23;99745.41;40270669;29;20072;-71
2023/10/29 14:17:42;;;;;;;1.98;1.30;;;;;;;22.47;49.05;99768.22;40286473;29;20056;-71
2023/10/29 14:37:42;;;;;;;3.25;1.35;;;;;;;22.30;49.66;99751.28;40295231;29;20057;-83
2023/10/29 14:57:43;;;;;;;3.92;1.48;;;;;;;22.28;50.03;99761.16;40286627;29;20384;-72
2023/10/29 15:17:45;;;;;;;3.95;1.40;;;;;;;22.21;50.07;99759.06;40279350;29;20101;-73
2023/10/29 15:37:46;;;;;;;10.05;1.83;;;;;;;22.19;50.17;99765.44;40255227;29;20065;-72
2023/10/29 15:57:46;;;;;;;8.27;1.70;;;;;;;22.13;50.62;99758.09;40242612;29;20049;-82
2023/10/29 16:17:47;;;;;;;10.07;1.90;;;;;;;22.13;50.12;99801.16;40278864;29;20140;-80
2023/10/29 16:37:49;;;;;;;8.18;2.35;;;;;;;22.12;50.33;99812.66;40252895;29;20047;-81
2023/10/29 16:57:49;;;;;;;6.95;2.22;;;;;;;21.85;48.90;99814.16;40282663;29;20048;-81
2023/10/29 17:17:52;;;;;;;6.10;2.10;;;;;;;21.59;48.18;99814.69;40309985;29;20057;-73
2023/10/29 17:37:54;;;;;;;3.80;1.80;;;;;;;21.04;47.31;99814.19;40283244;29;20137;-71
2023/10/29 17:57:55;;;;;;;7.15;2.05;;;;;;;21.90;47.96;99840.13;40267281;29;20455;-72
2023/10/29 18:17:55;;;;;;;4.68;1.90;;;;;;;21.88;49.25;99834.97;40258275;29;20088;-73
2023/10/29 18:37:56;;;;;;;6.50;2.13;;;;;;;21.82;49.43;99840.78;40253756;29;20377;-72
2023/10/29 18:57:57;;;;;;;6.30;2.30;;;;;;;21.66;50.12;99828.13;40238988;29;20565;-72
2023/10/29 19:18:01;;;;;;;17.23;2.30;;;;;;;21.82;50.45;99847.88;40221638;29;20041;-80
2023/10/29 19:38:02;;;;;;;17.48;2.80;;;;;;;21.80;50.57;99848.00;40232080;29;20705;-80
2023/10/29 19:58:04;;;;;;;12.80;2.95;;;;;;;21.77;51.41;99858.81;40230360;29;20049;-78
2023/10/29 20:18:05;;;;;;;9.63;2.92;;;;;;;21.83;50.93;99828.47;40241152;29;20120;-73
2023/10/29 20:38:06;;;;;;;4.20;2.45;;;;;;;21.80;50.71;99840.09;40299045;29;20097;-73
2023/10/29 20:58:07;;;;;;;5.45;2.20;;;;;;;21.70;50.24;99828.69;40312012;29;20052;-74
2023/10/29 21:18:08;;;;;;;3.33;2.00;;;;;;;21.78;49.89;99849.94;40295259;29;20041;-75
2023/10/29 21:38:10;;;;;;;3.03;1.65;;;;;;;21.66;49.89;99865.03;40287372;29;20052;-74
2023/10/29 21:58:11;;;;;;;4.30;1.92;;;;;;;21.69;49.79;99864.78;40286794;29;20049;-72
2023/10/29 22:18:11;;;;;;;1.98;1.67;;;;;;;21.74;50.13;99859.09;40274018;29;20047;-71
2023/10/29 22:38:11;;;;;;;7.00;2.15;;;;;;;21.74;50.54;99853.84;40279053;29;20056;-72
2023/10/29 22:58:12;;;;;;;5.40;1.85;;;;;;;21.67;51.37;99861.44;40295334;29;20112;-73
2023/10/29 23:18:12;;;;;;;3.05;1.90;;;;;;;21.64;51.98;99863.50;40286502;29;20065;-73
2023/10/29 23:38:13;;;;;;;2.83;1.88;;;;;;;21.62;51.71;99845.19;40271704;29;20045;-72
2023/10/29 23:58:14;;;;;;;2.55;1.95;;;;;;;21.57;52.23;99858.75;40282201;29;20052;-76
